sensor_id;sensor_type;location;lat;lon;timestamp;pressure;altitude;pressure_sealevel;temperature;humidity
6615;BME280;3343;42.896;23.912;2023-02-28T00:01:40;97093.28;;;10.97;91.83
6615;BME280;3343;42.896;23.912;2023-02-28T00:04:08;97098.50;;;11.28;91.29
6615;BME280;3343;42.896;23.912;2023-02-28T00:06:35;97096.03;;;11.03;91.96
6615;BME280;3343;42.896;23.912;2023-02-28T00:09:02;97108.56;;;11.62;89.17
6615;BME280;3343;42.896;23.912;2023-02-28T00:11:29;97120.47;;;11.58;89.39
6615;BME280;3343;42.896;23.912;2023-02-28T00:13:56;97124.81;;;11.51;89.96
6615;BME280;3343;42.896;23.912;2023-02-28T00:16:23;97118.53;;;11.52;89.51
6615;BME280;3343;42.896;23.912;2023-02-28T00:18:50;97121.19;;;11.66;88.67
6615;BME280;3343;42.896;23.912;2023-02-28T00:21:19;97126.25;;;11.91;88.19
6615;BME280;3343;42.896;23.912;2023-02-28T00:23:46;97122.34;;;12.01;86.72
6615;BME280;3343;42.896;23.912;2023-02-28T00:26:13;97125.66;;;12.18;85.76
6615;BME280;3343;42.896;23.912;2023-02-28T00:28:40;97123.53;;;12.28;85.79
6615;BME280;3343;42.896;23.912;2023-02-28T00:31:07;97128.53;;;12.08;86.37
6615;BME280;3343;42.896;23.912;2023-02-28T00:33:34;97124.53;;;12.42;85.30
6615;BME280;3343;42.896;23.912;2023-02-28T00:36:04;97127.09;;;12.71;84.43
6615;BME280;3343;42.896;23.912;2023-02-28T00:38:33;97117.19;;;12.95;83.77
6615;BME280;3343;42.896;23.912;2023-02-28T00:41:01;97111.28;;;12.93;83.47
6615;BME280;3343;42.896;23.912;2023-02-28T00:43:31;97106.72;;;12.65;83.59
6615;BME280;3343;42.896;23.912;2023-02-28T00:45:58;97106.69;;;12.44;84.16
6615;BME280;3343;42.896;23.912;2023-02-28T00:48:25;97115.22;;;12.46;84.79
6615;BME280;3343;42.896;23.912;2023-02-28T00:50:53;97116.19;;;12.60;84.55
6615;BME280;3343;42.896;23.912;2023-02-28T00:53:20;97119.56;;;12.68;83.94
6615;BME280;3343;42.896;23.912;2023-02-28T00:55:49;97120.84;;;12.94;83.82
6615;BME280;3343;42.896;23.912;2023-02-28T00:58:15;97116.47;;;12.65;84.50
6615;BME280;3343;42.896;23.912;2023-02-28T01:00:42;97121.59;;;12.88;83.46
6615;BME280;3343;42.896;23.912;2023-02-28T01:03:14;97122.88;;;13.13;82.68
6615;BME280;3343;42.896;23.912;2023-02-28T01:05:41;97123.22;;;13.25;82.00
6615;BME280;3343;42.896;23.912;2023-02-28T01:08:08;97109.38;;;13.23;81.55
6615;BME280;3343;42.896;23.912;2023-02-28T01:10:35;97110.25;;;13.30;80.93
6615;BME280;3343;42.896;23.912;2023-02-28T01:13:05;97104.19;;;13.15;81.71
6615;BME280;3343;42.896;23.912;2023-02-28T01:15:32;97100.84;;;13.06;82.26
6615;BME280;3343;42.896;23.912;2023-02-28T01:17:59;97107.78;;;13.07;82.20
6615;BME280;3343;42.896;23.912;2023-02-28T01:20:26;97103.59;;;12.98;82.34
6615;BME280;3343;42.896;23.912;2023-02-28T01:22:53;97082.34;;;12.85;82.83
6615;BME280;3343;42.896;23.912;2023-02-28T01:25:20;97111.28;;;12.93;82.45
6615;BME280;3343;42.896;23.912;2023-02-28T01:27:47;97123.47;;;12.94;82.48
6615;BME280;3343;42.896;23.912;2023-02-28T01:30:15;97116.38;;;12.94;82.86
6615;BME280;3343;42.896;23.912;2023-02-28T01:32:42;97109.88;;;12.75;83.20
6615;BME280;3343;42.896;23.912;2023-02-28T01:35:09;97103.44;;;12.63;83.34
6615;BME280;3343;42.896;23.912;2023-02-28T01:37:36;97105.59;;;12.74;83.03
6615;BME280;3343;42.896;23.912;2023-02-28T01:40:05;97113.34;;;12.97;82.41
6615;BME280;3343;42.896;23.912;2023-02-28T01:42:32;97114.28;;;12.68;82.84
6615;BME280;3343;42.896;23.912;2023-02-28T01:45:03;97116.13;;;12.89;82.12
6615;BME280;3343;42.896;23.912;2023-02-28T01:47:36;97110.72;;;12.97;82.30
6615;BME280;3343;42.896;23.912;2023-02-28T01:50:09;97108.69;;;12.99;81.53
6615;BME280;3343;42.896;23.912;2023-02-28T01:52:38;97110.00;;;12.89;81.65
6615;BME280;3343;42.896;23.912;2023-02-28T01:55:06;97114.16;;;12.76;82.45
6615;BME280;3343;42.896;23.912;2023-02-28T01:57:39;97094.34;;;12.87;82.04
6615;BME280;3343;42.896;23.912;2023-02-28T02:00:09;97116.97;;;12.75;82.25
6615;BME280;3343;42.896;23.912;2023-02-28T02:02:41;97113.53;;;12.74;81.75
6615;BME280;3343;42.896;23.912;2023-02-28T02:05:10;97114.28;;;12.90;81.77
6615;BME280;3343;42.896;23.912;2023-02-28T02:07:40;97115.56;;;12.94;81.56
6615;BME280;3343;42.896;23.912;2023-02-28T02:10:12;97124.16;;;13.17;81.03
6615;BME280;3343;42.896;23.912;2023-02-28T02:13:05;97126.16;;;13.15;80.04
6615;BME280;3343;42.896;23.912;2023-02-28T02:15:40;97118.06;;;13.17;80.71
6615;BME280;3343;42.896;23.912;2023-02-28T02:18:16;97120.38;;;13.26;80.05
6615;BME280;3343;42.896;23.912;2023-02-28T02:21:11;97124.59;;;13.42;79.45
6615;BME280;3343;42.896;23.912;2023-02-28T02:24:14;97122.38;;;13.46;78.97
6615;BME280;3343;42.896;23.912;2023-02-28T02:27:23;97111.44;;;13.27;79.57
6615;BME280;3343;42.896;23.912;2023-02-28T02:30:43;97134.84;;;13.52;77.83
6615;BME280;3343;42.896;23.912;2023-02-28T02:36:23;97134.22;;;13.28;78.27
6615;BME280;3343;42.896;23.912;2023-02-28T02:38:58;97138.31;;;13.31;78.25
6615;BME280;3343;42.896;23.912;2023-02-28T02:41:34;97138.19;;;13.39;77.95
6615;BME280;3343;42.896;23.912;2023-02-28T02:44:07;97132.44;;;13.14;79.39
6615;BME280;3343;42.896;23.912;2023-02-28T02:46:39;97140.47;;;13.21;79.23
6615;BME280;3343;42.896;23.912;2023-02-28T02:49:09;97135.81;;;13.23;79.25
6615;BME280;3343;42.896;23.912;2023-02-28T02:51:41;97135.56;;;13.18;80.05
6615;BME280;3343;42.896;23.912;2023-02-28T02:54:13;97133.84;;;13.31;79.17
6615;BME280;3343;42.896;23.912;2023-02-28T02:56:44;97141.28;;;13.21;79.36
6615;BME280;3343;42.896;23.912;2023-02-28T02:59:13;97155.38;;;13.28;79.17
6615;BME280;3343;42.896;23.912;2023-02-28T03:01:49;97155.06;;;13.17;79.39
6615;BME280;3343;42.896;23.912;2023-02-28T03:04:19;97162.66;;;12.90;79.70
6615;BME280;3343;42.896;23.912;2023-02-28T03:06:47;97166.09;;;12.55;81.35
6615;BME280;3343;42.896;23.912;2023-02-28T03:09:14;97165.84;;;12.35;81.90
6615;BME280;3343;42.896;23.912;2023-02-28T03:11:41;97157.22;;;12.26;82.65
6615;BME280;3343;42.896;23.912;2023-02-28T03:14:22;97157.47;;;12.31;82.96
6615;BME280;3343;42.896;23.912;2023-02-28T03:17:25;97158.75;;;12.50;81.97
6615;BME280;3343;42.896;23.912;2023-02-28T03:20:04;97155.34;;;12.71;81.38
6615;BME280;3343;42.896;23.912;2023-02-28T03:22:46;97154.78;;;12.75;81.48
6615;BME280;3343;42.896;23.912;2023-02-28T03:25:21;97154.59;;;12.77;81.33
6615;BME280;3343;42.896;23.912;2023-02-28T03:27:58;97155.09;;;12.87;80.57
6615;BME280;3343;42.896;23.912;2023-02-28T03:30:31;97156.81;;;12.95;81.09
6615;BME280;3343;42.896;23.912;2023-02-28T03:33:03;97160.25;;;13.10;80.87
6615;BME280;3343;42.896;23.912;2023-02-28T03:35:37;97163.97;;;13.16;79.98
6615;BME280;3343;42.896;23.912;2023-02-28T03:38:09;97164.13;;;13.29;79.81
6615;BME280;3343;42.896;23.912;2023-02-28T03:40:43;97167.47;;;13.37;79.42
6615;BME280;3343;42.896;23.912;2023-02-28T03:43:14;97160.34;;;13.38;79.04
6615;BME280;3343;42.896;23.912;2023-02-28T03:45:45;97170.88;;;13.31;79.13
6615;BME280;3343;42.896;23.912;2023-02-28T03:48:19;97170.94;;;13.17;78.64
6615;BME280;3343;42.896;23.912;2023-02-28T03:50:50;97168.56;;;12.92;79.23
6615;BME280;3343;42.896;23.912;2023-02-28T03:53:25;97172.66;;;12.95;79.67
6615;BME280;3343;42.896;23.912;2023-02-28T03:55:55;97172.91;;;13.15;78.85
6615;BME280;3343;42.896;23.912;2023-02-28T03:58:27;97183.66;;;13.13;79.05
6615;BME280;3343;42.896;23.912;2023-02-28T04:01:00;97173.78;;;12.86;79.02
6615;BME280;3343;42.896;23.912;2023-02-28T04:03:34;97186.06;;;13.08;78.44
6615;BME280;3343;42.896;23.912;2023-02-28T04:06:02;97188.94;;;13.13;78.13
6615;BME280;3343;42.896;23.912;2023-02-28T04:08:31;97187.94;;;13.14;79.07
6615;BME280;3343;42.896;23.912;2023-02-28T04:11:02;97198.88;;;13.26;78.34
6615;BME280;3343;42.896;23.912;2023-02-28T04:13:30;97207.84;;;12.95;78.86
6615;BME280;3343;42.896;23.912;2023-02-28T04:15:56;97207.94;;;12.87;79.89
6615;BME280;3343;42.896;23.912;2023-02-28T04:18:23;97210.91;;;12.99;79.17
6615;BME280;3343;42.896;23.912;2023-02-28T04:20:50;97204.28;;;13.18;78.53
6615;BME280;3343;42.896;23.912;2023-02-28T04:23:17;97199.34;;;13.15;78.71
6615;BME280;3343;42.896;23.912;2023-02-28T04:25:45;97202.41;;;13.33;78.09
6615;BME280;3343;42.896;23.912;2023-02-28T04:28:12;97204.63;;;13.00;78.65
6615;BME280;3343;42.896;23.912;2023-02-28T04:30:39;97210.25;;;12.75;80.27
6615;BME280;3343;42.896;23.912;2023-02-28T04:33:06;97208.59;;;12.74;80.66
6615;BME280;3343;42.896;23.912;2023-02-28T04:35:33;97196.78;;;12.70;80.56
6615;BME280;3343;42.896;23.912;2023-02-28T04:37:59;97209.41;;;12.75;80.87
6615;BME280;3343;42.896;23.912;2023-02-28T04:40:26;97209.38;;;12.90;80.60
6615;BME280;3343;42.896;23.912;2023-02-28T04:42:55;97207.94;;;13.02;79.96
6615;BME280;3343;42.896;23.912;2023-02-28T04:45:22;97201.31;;;12.76;80.15
6615;BME280;3343;42.896;23.912;2023-02-28T04:47:48;97201.94;;;12.79;80.18
6615;BME280;3343;42.896;23.912;2023-02-28T04:50:15;97202.72;;;12.94;79.78
6615;BME280;3343;42.896;23.912;2023-02-28T04:52:42;97204.00;;;12.98;78.87
6615;BME280;3343;42.896;23.912;2023-02-28T04:55:09;97207.28;;;13.00;79.13
6615;BME280;3343;42.896;23.912;2023-02-28T04:57:36;97208.78;;;12.73;80.09
6615;BME280;3343;42.896;23.912;2023-02-28T05:00:06;97207.66;;;12.97;80.27
6615;BME280;3343;42.896;23.912;2023-02-28T05:02:37;97213.91;;;12.60;81.24
6615;BME280;3343;42.896;23.912;2023-02-28T05:05:04;97211.44;;;12.43;81.82
6615;BME280;3343;42.896;23.912;2023-02-28T05:07:31;97215.19;;;12.49;81.99
6615;BME280;3343;42.896;23.912;2023-02-28T05:09:58;97225.56;;;12.51;82.29
6615;BME280;3343;42.896;23.912;2023-02-28T05:12:25;97211.72;;;12.49;81.91
6615;BME280;3343;42.896;23.912;2023-02-28T05:14:51;97224.94;;;12.34;83.08
6615;BME280;3343;42.896;23.912;2023-02-28T05:17:20;97226.09;;;12.75;81.77
6615;BME280;3343;42.896;23.912;2023-02-28T05:19:46;97222.84;;;12.44;82.42
6615;BME280;3343;42.896;23.912;2023-02-28T05:22:14;97226.72;;;12.63;82.87
6615;BME280;3343;42.896;23.912;2023-02-28T05:24:42;97233.75;;;12.70;82.25
6615;BME280;3343;42.896;23.912;2023-02-28T05:27:09;97235.81;;;12.90;81.77
6615;BME280;3343;42.896;23.912;2023-02-28T05:29:37;97228.06;;;12.88;81.63
6615;BME280;3343;42.896;23.912;2023-02-28T05:32:09;97230.09;;;13.37;79.65
6615;BME280;3343;42.896;23.912;2023-02-28T05:34:38;97227.31;;;13.24;79.54
6615;BME280;3343;42.896;23.912;2023-02-28T05:37:06;97232.16;;;13.20;79.63
6615;BME280;3343;42.896;23.912;2023-02-28T05:39:33;97237.81;;;13.17;79.31
6615;BME280;3343;42.896;23.912;2023-02-28T05:42:00;97243.19;;;12.94;79.73
6615;BME280;3343;42.896;23.912;2023-02-28T05:44:27;97244.56;;;12.75;81.01
6615;BME280;3343;42.896;23.912;2023-02-28T05:46:54;97250.28;;;12.94;80.03
6615;BME280;3343;42.896;23.912;2023-02-28T05:49:20;97250.66;;;12.91;80.00
6615;BME280;3343;42.896;23.912;2023-02-28T05:51:49;97251.94;;;12.80;81.16
6615;BME280;3343;42.896;23.912;2023-02-28T05:54:16;97245.63;;;12.96;80.46
6615;BME280;3343;42.896;23.912;2023-02-28T05:56:42;97240.34;;;12.96;80.52
6615;BME280;3343;42.896;23.912;2023-02-28T05:59:11;97244.25;;;13.00;80.31
6615;BME280;3343;42.896;23.912;2023-02-28T06:01:40;97225.63;;;12.87;80.76
6615;BME280;3343;42.896;23.912;2023-02-28T06:04:14;97249.38;;;12.87;81.36
6615;BME280;3343;42.896;23.912;2023-02-28T06:06:43;97241.13;;;12.60;82.24
6615;BME280;3343;42.896;23.912;2023-02-28T06:09:11;97240.47;;;12.58;83.52
6615;BME280;3343;42.896;23.912;2023-02-28T06:11:38;97244.31;;;12.26;84.57
6615;BME280;3343;42.896;23.912;2023-02-28T06:14:05;97234.66;;;12.19;84.40
6615;BME280;3343;42.896;23.912;2023-02-28T06:16:34;97252.13;;;12.34;85.10
6615;BME280;3343;42.896;23.912;2023-02-28T06:19:02;97259.97;;;12.57;84.53
6615;BME280;3343;42.896;23.912;2023-02-28T06:21:30;97259.22;;;12.93;83.44
6615;BME280;3343;42.896;23.912;2023-02-28T06:23:57;97259.84;;;13.24;82.88
6615;BME280;3343;42.896;23.912;2023-02-28T06:26:26;97266.13;;;13.59;82.03
6615;BME280;3343;42.896;23.912;2023-02-28T06:28:53;97275.00;;;13.52;81.08
6615;BME280;3343;42.896;23.912;2023-02-28T06:31:20;97276.69;;;13.59;80.34
6615;BME280;3343;42.896;23.912;2023-02-28T06:33:47;97286.13;;;13.47;79.02
6615;BME280;3343;42.896;23.912;2023-02-28T06:36:15;97275.69;;;13.60;78.89
6615;BME280;3343;42.896;23.912;2023-02-28T06:38:42;97276.50;;;13.61;78.87
6615;BME280;3343;42.896;23.912;2023-02-28T06:41:10;97280.66;;;13.70;77.70
6615;BME280;3343;42.896;23.912;2023-02-28T06:43:40;97283.97;;;13.93;77.62
6615;BME280;3343;42.896;23.912;2023-02-28T06:46:10;97276.47;;;13.97;77.41
6615;BME280;3343;42.896;23.912;2023-02-28T06:48:37;97285.22;;;13.97;75.58
6615;BME280;3343;42.896;23.912;2023-02-28T06:51:06;97287.78;;;14.12;76.31
6615;BME280;3343;42.896;23.912;2023-02-28T06:53:34;97293.91;;;13.91;75.84
6615;BME280;3343;42.896;23.912;2023-02-28T06:56:07;97292.13;;;14.20;74.95
6615;BME280;3343;42.896;23.912;2023-02-28T06:58:34;97291.19;;;13.85;75.98
6615;BME280;3343;42.896;23.912;2023-02-28T07:01:04;97285.66;;;13.22;78.87
6615;BME280;3343;42.896;23.912;2023-02-28T07:03:31;97282.72;;;12.88;80.71
6615;BME280;3343;42.896;23.912;2023-02-28T07:05:58;97291.66;;;13.16;80.49
6615;BME280;3343;42.896;23.912;2023-02-28T07:08:25;97286.09;;;13.11;81.03
6615;BME280;3343;42.896;23.912;2023-02-28T07:10:53;97282.81;;;12.94;81.44
6615;BME280;3343;42.896;23.912;2023-02-28T07:13:21;97283.91;;;13.15;80.54
6615;BME280;3343;42.896;23.912;2023-02-28T07:15:53;97276.13;;;13.43;79.08
6615;BME280;3343;42.896;23.912;2023-02-28T07:18:21;97279.88;;;13.33;79.47
6615;BME280;3343;42.896;23.912;2023-02-28T07:20:49;97279.09;;;13.18;80.18
6615;BME280;3343;42.896;23.912;2023-02-28T07:23:16;97273.63;;;13.05;81.09
6615;BME280;3343;42.896;23.912;2023-02-28T07:25:43;97270.97;;;13.05;80.74
6615;BME280;3343;42.896;23.912;2023-02-28T07:28:11;97275.06;;;12.93;81.42
6615;BME280;3343;42.896;23.912;2023-02-28T07:30:38;97266.50;;;13.20;81.14
6615;BME280;3343;42.896;23.912;2023-02-28T07:33:05;97276.94;;;13.43;79.82
6615;BME280;3343;42.896;23.912;2023-02-28T07:35:33;97277.06;;;13.56;78.12
6615;BME280;3343;42.896;23.912;2023-02-28T07:38:01;97274.91;;;13.45;77.54
6615;BME280;3343;42.896;23.912;2023-02-28T07:40:28;97280.22;;;13.45;77.59
6615;BME280;3343;42.896;23.912;2023-02-28T07:42:55;97283.44;;;13.26;78.95
6615;BME280;3343;42.896;23.912;2023-02-28T07:45:22;97277.50;;;13.38;78.67
6615;BME280;3343;42.896;23.912;2023-02-28T07:47:48;97275.34;;;12.98;79.40
6615;BME280;3343;42.896;23.912;2023-02-28T07:50:16;97276.25;;;12.90;79.78
6615;BME280;3343;42.896;23.912;2023-02-28T07:52:44;97273.88;;;12.95;80.14
6615;BME280;3343;42.896;23.912;2023-02-28T07:55:10;97274.88;;;13.09;79.76
6615;BME280;3343;42.896;23.912;2023-02-28T07:57:39;97278.09;;;13.04;78.94
6615;BME280;3343;42.896;23.912;2023-02-28T08:00:08;97276.34;;;12.97;79.70
6615;BME280;3343;42.896;23.912;2023-02-28T08:02:36;97271.59;;;12.92;79.94
6615;BME280;3343;42.896;23.912;2023-02-28T08:05:04;97290.94;;;13.22;78.98
6615;BME280;3343;42.896;23.912;2023-02-28T08:07:31;97284.38;;;13.03;79.53
6615;BME280;3343;42.896;23.912;2023-02-28T08:09:59;97287.22;;;13.17;78.84
6615;BME280;3343;42.896;23.912;2023-02-28T08:12:26;97285.91;;;12.98;78.59
6615;BME280;3343;42.896;23.912;2023-02-28T08:14:53;97288.66;;;13.19;78.64
6615;BME280;3343;42.896;23.912;2023-02-28T08:17:20;97287.84;;;13.55;76.11
6615;BME280;3343;42.896;23.912;2023-02-28T08:19:47;97284.50;;;13.67;76.75
6615;BME280;3343;42.896;23.912;2023-02-28T08:22:14;97280.28;;;13.52;75.93
6615;BME280;3343;42.896;23.912;2023-02-28T08:24:41;97281.41;;;13.43;76.61
6615;BME280;3343;42.896;23.912;2023-02-28T08:27:10;97281.28;;;13.51;77.43
6615;BME280;3343;42.896;23.912;2023-02-28T08:29:37;97279.53;;;13.22;78.08
6615;BME280;3343;42.896;23.912;2023-02-28T08:32:04;97284.94;;;13.50;76.27
6615;BME280;3343;42.896;23.912;2023-02-28T08:34:31;97277.75;;;13.65;76.25
6615;BME280;3343;42.896;23.912;2023-02-28T08:36:58;97280.91;;;13.75;75.32
6615;BME280;3343;42.896;23.912;2023-02-28T08:39:25;97282.00;;;13.81;74.84
6615;BME280;3343;42.896;23.912;2023-02-28T08:41:52;97277.25;;;14.19;74.31
6615;BME280;3343;42.896;23.912;2023-02-28T08:44:20;97282.53;;;14.19;74.07
6615;BME280;3343;42.896;23.912;2023-02-28T08:46:47;97289.16;;;14.29;74.26
6615;BME280;3343;42.896;23.912;2023-02-28T08:49:14;97290.38;;;14.33;73.74
6615;BME280;3343;42.896;23.912;2023-02-28T08:51:41;97296.72;;;14.60;73.92
6615;BME280;3343;42.896;23.912;2023-02-28T08:54:08;97291.13;;;14.77;72.79
6615;BME280;3343;42.896;23.912;2023-02-28T08:56:38;97297.72;;;14.59;74.08
6615;BME280;3343;42.896;23.912;2023-02-28T08:59:05;97301.13;;;14.75;72.77
6615;BME280;3343;42.896;23.912;2023-02-28T09:01:33;97302.66;;;14.97;72.53
6615;BME280;3343;42.896;23.912;2023-02-28T09:04:01;97304.44;;;14.83;70.82
6615;BME280;3343;42.896;23.912;2023-02-28T09:06:28;97309.69;;;14.77;72.14
6615;BME280;3343;42.896;23.912;2023-02-28T09:08:56;97309.19;;;14.94;72.63
6615;BME280;3343;42.896;23.912;2023-02-28T09:11:24;97313.97;;;14.78;73.01
6615;BME280;3343;42.896;23.912;2023-02-28T09:13:51;97309.88;;;14.26;74.07
6615;BME280;3343;42.896;23.912;2023-02-28T09:16:19;97307.28;;;14.32;75.26
6615;BME280;3343;42.896;23.912;2023-02-28T09:18:47;97297.47;;;14.26;75.20
6615;BME280;3343;42.896;23.912;2023-02-28T09:21:16;97301.19;;;14.32;75.69
6615;BME280;3343;42.896;23.912;2023-02-28T09:23:45;97303.38;;;14.00;77.13
6615;BME280;3343;42.896;23.912;2023-02-28T09:26:14;97304.50;;;14.13;76.43
6615;BME280;3343;42.896;23.912;2023-02-28T09:28:42;97304.06;;;14.37;75.86
6615;BME280;3343;42.896;23.912;2023-02-28T09:31:12;97303.19;;;14.51;76.13
6615;BME280;3343;42.896;23.912;2023-02-28T09:33:40;97295.38;;;13.94;76.52
6615;BME280;3343;42.896;23.912;2023-02-28T09:36:08;97299.13;;;13.85;77.98
6615;BME280;3343;42.896;23.912;2023-02-28T09:38:35;97300.69;;;13.58;78.02
6615;BME280;3343;42.896;23.912;2023-02-28T09:41:04;97291.63;;;13.67;78.43
6615;BME280;3343;42.896;23.912;2023-02-28T09:43:37;97292.38;;;13.82;77.54
6615;BME280;3343;42.896;23.912;2023-02-28T09:46:11;97300.09;;;13.41;81.37
6615;BME280;3343;42.896;23.912;2023-02-28T09:48:41;97293.06;;;13.48;81.29
6615;BME280;3343;42.896;23.912;2023-02-28T09:51:22;97291.78;;;13.44;82.01
6615;BME280;3343;42.896;23.912;2023-02-28T09:53:53;97292.03;;;12.84;84.09
6615;BME280;3343;42.896;23.912;2023-02-28T09:56:22;97291.19;;;12.54;85.56
6615;BME280;3343;42.896;23.912;2023-02-28T09:58:55;97302.06;;;13.03;83.99
6615;BME280;3343;42.896;23.912;2023-02-28T10:01:28;97292.38;;;13.25;83.42
6615;BME280;3343;42.896;23.912;2023-02-28T10:04:00;97293.44;;;13.45;82.31
6615;BME280;3343;42.896;23.912;2023-02-28T10:06:36;97290.38;;;12.83;83.32
6615;BME280;3343;42.896;23.912;2023-02-28T10:09:10;97295.19;;;12.94;83.86
6615;BME280;3343;42.896;23.912;2023-02-28T10:11:40;97293.28;;;12.88;84.93
6615;BME280;3343;42.896;23.912;2023-02-28T10:14:13;97292.84;;;12.84;85.16
6615;BME280;3343;42.896;23.912;2023-02-28T10:16:43;97292.69;;;13.00;85.49
6615;BME280;3343;42.896;23.912;2023-02-28T10:19:20;97291.97;;;13.43;83.47
6615;BME280;3343;42.896;23.912;2023-02-28T10:21:55;97292.94;;;13.78;81.82
6615;BME280;3343;42.896;23.912;2023-02-28T10:24:27;97286.81;;;12.90;83.98
6615;BME280;3343;42.896;23.912;2023-02-28T10:26:59;97285.91;;;12.83;86.08
6615;BME280;3343;42.896;23.912;2023-02-28T10:29:27;97279.53;;;12.92;85.91
6615;BME280;3343;42.896;23.912;2023-02-28T10:31:55;97273.00;;;13.03;83.78
6615;BME280;3343;42.896;23.912;2023-02-28T10:34:24;97272.75;;;13.34;82.68
6615;BME280;3343;42.896;23.912;2023-02-28T10:36:53;97273.59;;;13.34;82.90
6615;BME280;3343;42.896;23.912;2023-02-28T10:39:41;97276.69;;;13.38;82.28
6615;BME280;3343;42.896;23.912;2023-02-28T10:42:23;97272.63;;;13.06;84.01
6615;BME280;3343;42.896;23.912;2023-02-28T10:45:05;97266.81;;;13.47;82.41
6615;BME280;3343;42.896;23.912;2023-02-28T10:47:33;97264.66;;;13.35;83.02
6615;BME280;3343;42.896;23.912;2023-02-28T10:50:02;97269.94;;;13.35;82.35
6615;BME280;3343;42.896;23.912;2023-02-28T10:52:36;97269.72;;;13.73;80.14
6615;BME280;3343;42.896;23.912;2023-02-28T10:55:18;97266.41;;;13.28;81.79
6615;BME280;3343;42.896;23.912;2023-02-28T10:57:48;97260.84;;;12.94;84.52
6615;BME280;3343;42.896;23.912;2023-02-28T11:00:17;97258.69;;;12.83;84.72
6615;BME280;3343;42.896;23.912;2023-02-28T11:02:45;97255.78;;;12.77;84.78
6615;BME280;3343;42.896;23.912;2023-02-28T11:05:26;97256.66;;;13.14;83.19
6615;BME280;3343;42.896;23.912;2023-02-28T11:07:56;97257.22;;;13.10;84.13
6615;BME280;3343;42.896;23.912;2023-02-28T11:10:26;97255.50;;;12.72;84.95
6615;BME280;3343;42.896;23.912;2023-02-28T11:12:56;97252.41;;;12.69;84.95
6615;BME280;3343;42.896;23.912;2023-02-28T11:15:24;97257.50;;;12.41;86.15
6615;BME280;3343;42.896;23.912;2023-02-28T11:17:57;97252.84;;;12.87;85.00
6615;BME280;3343;42.896;23.912;2023-02-28T11:20:28;97259.03;;;13.09;84.24
6615;BME280;3343;42.896;23.912;2023-02-28T11:22:58;97252.75;;;13.25;82.87
6615;BME280;3343;42.896;23.912;2023-02-28T11:25:30;97245.81;;;13.09;82.80
6615;BME280;3343;42.896;23.912;2023-02-28T11:27:59;97238.75;;;12.80;83.88
6615;BME280;3343;42.896;23.912;2023-02-28T11:30:34;97249.59;;;13.36;82.62
6615;BME280;3343;42.896;23.912;2023-02-28T11:33:20;97248.94;;;13.49;81.61
6615;BME280;3343;42.896;23.912;2023-02-28T11:35:49;97246.63;;;12.95;83.72
6615;BME280;3343;42.896;23.912;2023-02-28T11:38:17;97252.41;;;12.84;84.49
6615;BME280;3343;42.896;23.912;2023-02-28T11:40:49;97236.66;;;12.75;85.57
6615;BME280;3343;42.896;23.912;2023-02-28T11:43:30;97249.38;;;12.87;83.81
6615;BME280;3343;42.896;23.912;2023-02-28T11:46:10;97246.75;;;12.87;84.52
6615;BME280;3343;42.896;23.912;2023-02-28T11:48:51;97248.38;;;13.02;83.29
6615;BME280;3343;42.896;23.912;2023-02-28T11:51:22;97250.38;;;13.15;83.92
6615;BME280;3343;42.896;23.912;2023-02-28T11:54:11;97252.69;;;13.61;81.76
6615;BME280;3343;42.896;23.912;2023-02-28T11:56:44;97252.28;;;13.06;83.06
6615;BME280;3343;42.896;23.912;2023-02-28T11:59:31;97263.44;;;13.02;82.81
6615;BME280;3343;42.896;23.912;2023-02-28T12:02:15;97253.44;;;13.33;82.63
6615;BME280;3343;42.896;23.912;2023-02-28T12:04:53;97259.47;;;12.98;83.71
6615;BME280;3343;42.896;23.912;2023-02-28T12:07:29;97248.84;;;12.76;84.75
6615;BME280;3343;42.896;23.912;2023-02-28T12:10:06;97262.31;;;13.11;83.64
6615;BME280;3343;42.896;23.912;2023-02-28T12:12:45;97255.03;;;13.49;81.72
6615;BME280;3343;42.896;23.912;2023-02-28T12:15:35;97254.66;;;13.74;80.71
6615;BME280;3343;42.896;23.912;2023-02-28T12:18:17;97249.50;;;13.44;81.29
6615;BME280;3343;42.896;23.912;2023-02-28T12:20:54;97238.72;;;13.46;80.76
6615;BME280;3343;42.896;23.912;2023-02-28T12:23:47;97255.47;;;13.74;79.75
6615;BME280;3343;42.896;23.912;2023-02-28T12:26:25;97269.44;;;12.37;85.05
6615;BME280;3343;42.896;23.912;2023-02-28T12:29:02;97271.25;;;12.51;85.15
6615;BME280;3343;42.896;23.912;2023-02-28T12:31:35;97268.97;;;12.48;84.75
6615;BME280;3343;42.896;23.912;2023-02-28T12:34:05;97264.34;;;12.50;84.63
6615;BME280;3343;42.896;23.912;2023-02-28T12:36:35;97271.34;;;12.72;82.89
6615;BME280;3343;42.896;23.912;2023-02-28T12:39:06;97274.81;;;12.58;83.50
6615;BME280;3343;42.896;23.912;2023-02-28T12:41:41;97270.53;;;12.72;82.57
6615;BME280;3343;42.896;23.912;2023-02-28T12:44:12;97261.78;;;13.01;82.22
6615;BME280;3343;42.896;23.912;2023-02-28T12:46:45;97257.13;;;12.88;81.97
6615;BME280;3343;42.896;23.912;2023-02-28T12:49:17;97265.09;;;13.39;80.46
6615;BME280;3343;42.896;23.912;2023-02-28T12:51:45;97262.03;;;13.57;80.09
6615;BME280;3343;42.896;23.912;2023-02-28T12:54:21;97254.44;;;13.32;79.09
6615;BME280;3343;42.896;23.912;2023-02-28T12:56:58;97255.94;;;13.05;79.30
6615;BME280;3343;42.896;23.912;2023-02-28T12:59:34;97256.75;;;13.06;79.54
6615;BME280;3343;42.896;23.912;2023-02-28T13:05:26;97252.06;;;12.57;81.15
6615;BME280;3343;42.896;23.912;2023-02-28T13:08:07;97264.31;;;12.21;83.98
6615;BME280;3343;42.896;23.912;2023-02-28T13:10:42;97268.50;;;11.92;85.80
6615;BME280;3343;42.896;23.912;2023-02-28T13:13:16;97247.59;;;12.28;85.07
6615;BME280;3343;42.896;23.912;2023-02-28T13:15:58;97252.50;;;12.61;83.28
6615;BME280;3343;42.896;23.912;2023-02-28T13:18:30;97255.22;;;12.82;82.29
6615;BME280;3343;42.896;23.912;2023-02-28T13:20:58;97251.41;;;12.26;83.24
6615;BME280;3343;42.896;23.912;2023-02-28T13:23:57;97252.09;;;11.82;86.03
6615;BME280;3343;42.896;23.912;2023-02-28T13:29:30;97247.53;;;12.13;84.77
6615;BME280;3343;42.896;23.912;2023-02-28T13:35:36;97233.56;;;12.28;83.24
6615;BME280;3343;42.896;23.912;2023-02-28T13:38:34;97245.75;;;12.29;83.55
6615;BME280;3343;42.896;23.912;2023-02-28T13:44:19;97246.34;;;11.56;87.01
6615;BME280;3343;42.896;23.912;2023-02-28T13:47:21;97235.84;;;11.70;85.88